Time;durP1;ratioP1;P1;durP2;ratioP2;P2;SDS_P1;SDS_P2;PMS_P1;PMS_P2;Temp;Humidity;BMP_temperature;BMP_pressure;BME280_temperature;BME280_humidity;BME280_pressure;Samples;Min_cycle;Max_cycle;Signal;HPM_P1;HPM_P2
2021/12/13 00:01:59;;;;;;;;;;;;;;;-1.23;100.00;100524.25;4987709;28;19926;-81
2021/12/13 00:04:27;;;;;;;;;;;;;;;-1.21;100.00;100524.22;5005308;28;19925;-79
2021/12/13 00:06:56;;;;;;;;;;;;;;;-1.24;100.00;100520.81;5005258;28;20389;-79
2021/12/13 00:09:23;;;;;;;;;;;;;;;-1.19;100.00;100518.09;5005367;28;19925;-82
2021/12/13 00:11:51;;;;;;;;;;;;;;;-1.17;100.00;100520.63;5005806;28;19917;-81
2021/12/13 00:14:27;;;;;;;;;;;;;;;-1.18;100.00;100518.94;5003574;28;20044;-81
2021/12/13 00:16:58;;;;;;;;;;;;;;;-1.23;100.00;100517.31;5005787;28;20420;-80
2021/12/13 00:19:29;;;;;;;;;;;;;;;-1.19;100.00;100518.09;5003410;28;19948;-80
2021/12/13 00:22:01;;;;;;;;;;;;;;;-1.13;100.00;100517.06;5001869;28;19921;-80
2021/12/13 00:24:31;;;;;;;;;;;;;;;-1.08;100.00;100516.03;5002098;28;19980;-80
2021/12/13 00:27:02;;;;;;;;;;;;;;;-1.05;100.00;100515.06;5001150;28;19921;-80
2021/12/13 00:29:33;;;;;;;;;;;;;;;-1.02;100.00;100515.00;5007393;28;20467;-81
2021/12/13 00:32:13;;;;;;;;;;;;;;;-1.03;100.00;100518.47;5003901;28;19917;-80
2021/12/13 00:34:41;;;;;;;;;;;;;;;-1.05;100.00;100520.25;4997564;28;19960;-78
2021/12/13 00:37:11;;;;;;;;;;;;;;;-1.12;100.00;100516.19;4992303;28;19917;-80
2021/12/13 00:39:55;;;;;;;;;;;;;;;-1.27;100.00;100518.31;4997170;28;19917;-80
2021/12/13 00:42:23;;;;;;;;;;;;;;;-1.39;100.00;100510.06;5000950;28;20012;-80
2021/12/13 00:44:49;;;;;;;;;;;;;;;-1.43;100.00;100514.50;5003858;28;19924;-80
2021/12/13 00:47:23;;;;;;;;;;;;;;;-1.43;100.00;100514.50;4989869;28;19918;-79
2021/12/13 00:49:52;;;;;;;;;;;;;;;-1.40;100.00;100518.72;5000624;28;19992;-80
2021/12/13 00:52:18;;;;;;;;;;;;;;;-1.34;100.00;100526.31;5003047;28;19921;-81
2021/12/13 00:54:44;;;;;;;;;;;;;;;-1.28;100.00;100518.34;5001527;28;19980;-81
2021/12/13 00:57:33;;;;;;;;;;;;;;;-1.23;100.00;100522.50;5003530;28;19928;-80
2021/12/13 01:00:05;;;;;;;;;;;;;;;-1.14;100.00;100530.91;5001199;28;19926;-80
2021/12/13 01:02:38;;;;;;;;;;;;;;;-1.09;100.00;100516.91;5003900;28;19917;-79
2021/12/13 01:05:06;;;;;;;;;;;;;;;-1.07;100.00;100514.28;5003767;28;20337;-79
2021/12/13 01:07:40;;;;;;;;;;;;;;;-0.99;100.00;100514.88;5001247;28;19918;-79
2021/12/13 01:10:24;;;;;;;;;;;;;;;-0.91;100.00;100518.94;4994630;28;20095;-82
2021/12/13 01:12:51;;;;;;;;;;;;;;;-0.86;100.00;100521.38;5004146;28;20286;-81
2021/12/13 01:15:34;;;;;;;;;;;;;;;-0.78;100.00;100524.59;5000485;28;19913;-80
2021/12/13 01:18:29;;;;;;;;;;;;;;;-0.78;100.00;100524.59;4999905;28;19948;-79
2021/12/13 01:23:39;;;;;;;;;;;;;;;-0.96;100.00;100509.63;5000701;28;19918;-80
2021/12/13 01:26:26;;;;;;;;;;;;;;;-1.00;100.00;100508.03;4994189;28;20663;-79
2021/12/13 01:28:54;;;;;;;;;;;;;;;-1.06;100.00;100510.81;5001695;28;19917;-80
2021/12/13 01:31:28;;;;;;;;;;;;;;;-1.08;100.00;100510.84;5007178;28;20328;-80
2021/12/13 01:33:53;;;;;;;;;;;;;;;-1.08;100.00;100512.59;5003539;28;19928;-80
2021/12/13 01:36:24;;;;;;;;;;;;;;;-1.07;100.00;100507.38;5001077;28;19929;-80
2021/12/13 01:38:52;;;;;;;;;;;;;;;-1.09;100.00;100516.06;5001480;28;19987;-80
2021/12/13 01:41:19;;;;;;;;;;;;;;;-1.19;100.00;100519.84;5003867;28;19918;-79
2021/12/13 01:43:51;;;;;;;;;;;;;;;-1.28;100.00;100519.22;4999574;28;20377;-80
2021/12/13 01:46:19;;;;;;;;;;;;;;;-1.32;100.00;100522.78;4999354;28;20342;-80
2021/12/13 01:48:45;;;;;;;;;;;;;;;-1.32;100.00;100527.97;4999745;28;19913;-80
2021/12/13 01:51:12;;;;;;;;;;;;;;;-1.35;100.00;100527.19;5001931;28;20412;-79
2021/12/13 01:53:42;;;;;;;;;;;;;;;-1.36;100.00;100531.53;4997958;28;20065;-79
2021/12/13 01:56:24;;;;;;;;;;;;;;;-1.31;100.00;100529.66;5000233;28;19921;-79
2021/12/13 01:58:50;;;;;;;;;;;;;;;-1.30;100.00;100525.34;4998677;28;20000;-80
2021/12/13 02:01:20;;;;;;;;;;;;;;;-1.26;100.00;100526.94;4999696;28;19940;-80
2021/12/13 02:03:54;;;;;;;;;;;;;;;-1.30;100.00;100521.00;5002766;28;19917;-80
2021/12/13 02:06:30;;;;;;;;;;;;;;;-1.26;100.00;100522.59;5003713;28;19925;-80
2021/12/13 02:08:57;;;;;;;;;;;;;;;-1.18;100.00;100518.94;5001493;28;19918;-80
2021/12/13 02:11:23;;;;;;;;;;;;;;;-1.13;100.00;100522.25;5003749;28;19954;-80
2021/12/13 02:14:06;;;;;;;;;;;;;;;-1.11;100.00;100520.44;5001168;28;19918;-80
2021/12/13 02:16:57;;;;;;;;;;;;;;;-1.10;100.00;100522.13;5003521;28;20320;-80
2021/12/13 02:19:28;;;;;;;;;;;;;;;-1.12;100.00;100534.31;5000790;28;19944;-79
2021/12/13 02:22:02;;;;;;;;;;;;;;;-1.17;100.00;100530.97;5000822;28;20057;-81
2021/12/13 02:24:27;;;;;;;;;;;;;;;-1.24;100.00;100536.34;5004355;28;19924;-80
2021/12/13 02:26:57;;;;;;;;;;;;;;;-1.29;100.00;100538.22;5005419;28;19922;-80
2021/12/13 02:29:30;;;;;;;;;;;;;;;-1.41;100.00;100527.38;5004441;28;20425;-81
2021/12/13 02:31:59;;;;;;;;;;;;;;;-1.44;100.00;100533.50;5004807;28;20290;-78
2021/12/13 02:34:25;;;;;;;;;;;;;;;-1.50;100.00;100538.84;5004922;28;19924;-80
2021/12/13 02:36:52;;;;;;;;;;;;;;;-1.58;100.00;100543.38;5004632;28;19917;-80
2021/12/13 02:39:23;;;;;;;;;;;;;;;-1.67;100.00;100530.72;5005389;28;19918;-80
2021/12/13 02:41:50;;;;;;;;;;;;;;;-1.72;100.00;100532.56;5003596;28;19924;-80
2021/12/13 02:44:26;;;;;;;;;;;;;;;-1.84;100.00;100525.16;5002862;28;19918;-80
2021/12/13 02:46:57;;;;;;;;;;;;;;;-1.92;100.00;100525.34;5003749;28;20005;-80
2021/12/13 02:49:22;;;;;;;;;;;;;;;-1.99;100.00;100522.97;5003395;28;19976;-80
2021/12/13 02:51:53;;;;;;;;;;;;;;;-1.97;100.00;100516.88;5003947;28;19917;-78
2021/12/13 02:54:26;;;;;;;;;;;;;;;-1.94;100.00;100506.41;5002409;28;19944;-79
2021/12/13 02:56:53;;;;;;;;;;;;;;;-1.89;100.00;100514.09;5004387;28;19992;-79
2021/12/13 02:59:20;;;;;;;;;;;;;;;-1.81;100.00;100517.28;5003819;28;19918;-79
2021/12/13 03:02:04;;;;;;;;;;;;;;;-1.73;100.00;100516.19;5003447;28;19917;-79
2021/12/13 03:04:30;;;;;;;;;;;;;;;-1.63;100.00;100506.44;5005787;28;20025;-80
2021/12/13 03:07:04;;;;;;;;;;;;;;;-1.59;100.00;100508.03;5003459;28;19945;-79
2021/12/13 03:09:31;;;;;;;;;;;;;;;-1.57;100.00;100510.59;5005564;28;20020;-80
2021/12/13 03:11:58;;;;;;;;;;;;;;;-1.60;100.00;100498.59;5004415;28;19921;-79
2021/12/13 03:14:26;;;;;;;;;;;;;;;-1.65;100.00;100498.69;5004584;28;19937;-80
2021/12/13 03:17:03;;;;;;;;;;;;;;;-1.66;100.00;100497.03;5004309;28;20263;-80
2021/12/13 03:19:34;;;;;;;;;;;;;;;-1.75;100.00;100493.84;5002448;28;19917;-79
2021/12/13 03:22:19;;;;;;;;;;;;;;;-1.83;100.00;100498.41;5005001;28;19928;-81
2021/12/13 03:25:03;;;;;;;;;;;;;;;-1.86;100.00;100498.47;4998852;28;19918;-80
2021/12/13 03:27:46;;;;;;;;;;;;;;;-1.83;100.00;100500.97;5003024;28;20005;-80
2021/12/13 03:30:15;;;;;;;;;;;;;;;-1.92;100.00;100499.47;4999335;28;19929;-80
2021/12/13 03:32:45;;;;;;;;;;;;;;;-1.95;100.00;100490.97;5005928;28;19917;-79
2021/12/13 03:35:13;;;;;;;;;;;;;;;-1.97;100.00;100492.72;5002080;28;19922;-79
2021/12/13 03:37:39;;;;;;;;;;;;;;;-1.95;100.00;100496.13;5005516;28;19921;-80
2021/12/13 03:40:07;;;;;;;;;;;;;;;-1.92;100.00;100496.03;4998119;28;20839;-80
2021/12/13 03:42:37;;;;;;;;;;;;;;;-1.98;100.00;100496.22;5005542;28;19928;-80
2021/12/13 03:45:06;;;;;;;;;;;;;;;-2.10;100.00;100485.31;5002568;28;19922;-79
2021/12/13 03:47:35;;;;;;;;;;;;;;;-2.19;100.00;100498.50;5005506;28;19918;-79
2021/12/13 03:50:06;;;;;;;;;;;;;;;-2.30;100.00;100497.91;5002538;28;19924;-79
2021/12/13 03:52:31;;;;;;;;;;;;;;;-2.34;100.00;100479.91;5003989;28;19917;-80
2021/12/13 03:54:59;;;;;;;;;;;;;;;-2.33;100.00;100487.66;5003323;28;20289;-79
2021/12/13 03:57:25;;;;;;;;;;;;;;;-2.31;100.00;100491.06;5004386;28;19919;-79
2021/12/13 03:59:51;;;;;;;;;;;;;;;-2.33;100.00;100487.66;5004155;28;19924;-80
2021/12/13 04:02:22;;;;;;;;;;;;;;;-2.30;100.00;100490.16;5003919;28;19917;-79
2021/12/13 04:04:50;;;;;;;;;;;;;;;-2.26;100.00;100486.59;5005734;28;19918;-80
2021/12/13 04:07:18;;;;;;;;;;;;;;;-2.25;100.00;100492.63;5004983;28;19918;-79
2021/12/13 04:09:45;;;;;;;;;;;;;;;-2.29;100.00;100486.66;5005291;28;20449;-79
2021/12/13 04:12:14;;;;;;;;;;;;;;;-2.36;100.00;100486.88;5000640;28;19921;-80
2021/12/13 04:14:48;;;;;;;;;;;;;;;-2.33;100.00;100486.78;5002140;28;19972;-80
2021/12/13 04:17:56;;;;;;;;;;;;;;;-2.36;100.00;100490.31;5004159;28;19921;-80
2021/12/13 04:20:28;;;;;;;;;;;;;;;-2.35;100.00;100502.34;5004202;28;20301;-79
2021/12/13 04:22:55;;;;;;;;;;;;;;;-2.26;100.00;100488.34;5010753;28;19917;-78
2021/12/13 04:25:26;;;;;;;;;;;;;;;-2.19;100.00;100482.13;5020452;28;20001;-79
2021/12/13 04:28:00;;;;;;;;;;;;;;;-2.16;100.00;100485.47;5017703;28;19918;-79
2021/12/13 04:30:28;;;;;;;;;;;;;;;-2.23;100.00;100486.50;5023837;28;19924;-79
2021/12/13 04:32:55;;;;;;;;;;;;;;;-2.23;100.00;100489.09;5024993;28;19944;-79
2021/12/13 04:35:23;;;;;;;;;;;;;;;-2.25;100.00;100495.22;5006551;28;20358;-78
2021/12/13 04:37:50;;;;;;;;;;;;;;;-2.34;100.00;100501.47;5008426;28;19964;-81
2021/12/13 04:40:24;;;;;;;;;;;;;;;-2.29;100.00;100499.59;5006970;28;19925;-80
2021/12/13 04:42:53;;;;;;;;;;;;;;;-2.26;100.00;100494.38;5004786;28;20325;-80
2021/12/13 04:45:20;;;;;;;;;;;;;;;-2.32;100.00;100489.34;5007954;28;19917;-79
2021/12/13 04:48:04;;;;;;;;;;;;;;;-2.34;100.00;100491.13;5002071;28;19917;-80
2021/12/13 04:50:33;;;;;;;;;;;;;;;-2.35;100.00;100489.41;5002219;28;19918;-80
2021/12/13 04:53:00;;;;;;;;;;;;;;;-2.31;100.00;100495.38;5002820;28;19918;-80
2021/12/13 04:55:28;;;;;;;;;;;;;;;-2.30;100.00;100502.25;5000627;28;20334;-80
2021/12/13 04:57:54;;;;;;;;;;;;;;;-2.27;100.00;100500.41;5004479;28;19921;-80
2021/12/13 05:00:21;;;;;;;;;;;;;;;-2.31;100.00;100496.22;4999130;28;19917;-80
2021/12/13 05:02:48;;;;;;;;;;;;;;;-2.31;100.00;100491.06;5001051;28;19961;-79
2021/12/13 05:05:15;;;;;;;;;;;;;;;-2.27;100.00;100492.66;5003871;28;20028;-79
2021/12/13 05:07:42;;;;;;;;;;;;;;;-2.24;100.00;100497.72;5004296;28;19917;-80
2021/12/13 05:10:08;;;;;;;;;;;;;;;-2.20;100.00;100501.97;5000262;28;20012;-79
2021/12/13 05:12:33;;;;;;;;;;;;;;;-2.17;100.00;100501.00;5004027;28;20051;-79
2021/12/13 05:15:05;;;;;;;;;;;;;;;-2.13;100.00;100495.75;5000618;28;19926;-79
2021/12/13 05:17:36;;;;;;;;;;;;;;;-2.10;100.00;100495.66;5001881;28;20028;-79
2021/12/13 05:20:10;;;;;;;;;;;;;;;-2.11;100.00;100501.69;5000684;28;19996;-79
2021/12/13 05:22:47;;;;;;;;;;;;;;;-2.15;100.00;100501.84;4996776;28;19972;-79
2021/12/13 05:25:18;;;;;;;;;;;;;;;-2.21;100.00;100505.44;5002991;28;19921;-79
2021/12/13 05:27:45;;;;;;;;;;;;;;;-2.32;100.00;100515.19;5000652;28;19940;-79
2021/12/13 05:30:15;;;;;;;;;;;;;;;-2.36;100.00;100510.16;5003381;28;20322;-80
2021/12/13 05:32:43;;;;;;;;;;;;;;;-2.32;100.00;100517.78;5000656;28;19953;-80
2021/12/13 05:35:16;;;;;;;;;;;;;;;-2.31;100.00;100519.50;5003424;28;19920;-80
2021/12/13 05:37:43;;;;;;;;;;;;;;;-2.35;100.00;100520.44;4997416;28;19917;-80
2021/12/13 05:40:15;;;;;;;;;;;;;;;-2.45;100.00;100529.31;5001404;28;19921;-80
2021/12/13 05:42:41;;;;;;;;;;;;;;;-2.57;100.00;100524.44;4997151;28;19914;-79
2021/12/13 05:45:08;;;;;;;;;;;;;;;-2.61;100.00;100528.00;5002788;28;19917;-78
2021/12/13 05:47:34;;;;;;;;;;;;;;;-2.65;100.00;100531.53;4999782;28;20015;-80
2021/12/13 05:50:00;;;;;;;;;;;;;;;-2.65;100.00;100536.72;5000755;28;20012;-79
2021/12/13 05:52:31;;;;;;;;;;;;;;;-2.65;100.00;100539.28;5002200;28;19957;-77
2021/12/13 05:54:58;;;;;;;;;;;;;;;-2.65;100.00;100547.03;5000612;28;19996;-79
2021/12/13 05:57:44;;;;;;;;;;;;;;;-2.64;100.00;100538.38;5005199;28;19922;-81
2021/12/13 06:00:18;;;;;;;;;;;;;;;-2.64;100.00;100543.56;4999877;28;19918;-83
2021/12/13 06:02:49;;;;;;;;;;;;;;;-2.60;100.00;100538.31;5001147;28;20016;-83
2021/12/13 06:05:22;;;;;;;;;;;;;;;-2.58;100.00;100544.25;5006570;28;19979;-81
2021/12/13 06:07:52;;;;;;;;;;;;;;;-2.57;100.00;100539.94;5004284;28;19918;-80
2021/12/13 06:10:18;;;;;;;;;;;;;;;-2.64;100.00;100539.22;5003559;28;20400;-83
2021/12/13 06:12:52;;;;;;;;;;;;;;;-2.66;100.00;100532.44;5007803;28;19917;-81
2021/12/13 06:15:21;;;;;;;;;;;;;;;-2.71;100.00;100542.03;5003775;28;19914;-83
2021/12/13 06:17:49;;;;;;;;;;;;;;;-2.77;100.00;100537.84;5008801;28;19925;-84
2021/12/13 06:20:19;;;;;;;;;;;;;;;-2.78;100.00;100550.78;5011568;28;19913;-82
2021/12/13 06:22:45;;;;;;;;;;;;;;;-2.77;100.00;100542.16;5002800;28;19921;-84
2021/12/13 06:25:15;;;;;;;;;;;;;;;-2.79;100.00;100543.91;4301600;28;10000427;-84
2021/12/13 06:27:43;;;;;;;;;;;;;;;-2.81;100.00;100556.88;5002527;28;19921;-84
2021/12/13 06:30:18;;;;;;;;;;;;;;;-2.80;100.00;100543.06;4996897;28;19972;-84
2021/12/13 06:32:49;;;;;;;;;;;;;;;-2.77;100.00;100548.19;5002926;28;20358;-84
2021/12/13 06:35:33;;;;;;;;;;;;;;;-2.73;100.00;100548.94;5004648;28;19921;-84
2021/12/13 06:38:20;;;;;;;;;;;;;;;-2.62;100.00;100557.28;5004481;28;19972;-85
2021/12/13 06:41:04;;;;;;;;;;;;;;;-2.53;100.00;100562.22;5004787;28;20370;-84
2021/12/13 06:43:47;;;;;;;;;;;;;;;-2.46;100.00;100563.78;5004288;28;20278;-83
2021/12/13 06:46:22;;;;;;;;;;;;;;;-2.41;100.00;100556.78;4310790;28;10001285;-83
2021/12/13 06:48:47;;;;;;;;;;;;;;;-2.34;100.00;100568.66;5002915;28;19917;-82
2021/12/13 06:51:16;;;;;;;;;;;;;;;-2.30;100.00;100570.31;5010384;28;19927;-84
2021/12/13 06:54:03;;;;;;;;;;;;;;;-2.25;100.00;100572.78;4980159;28;19925;-87
2021/12/13 06:56:29;;;;;;;;;;;;;;;-2.24;100.00;100570.13;5009174;28;19917;-91
2021/12/13 06:58:58;;;;;;;;;;;;;;;-2.26;100.00;100574.50;5003807;28;20456;-82
2021/12/13 07:01:24;;;;;;;;;;;;;;;-2.29;100.00;100571.97;5005860;28;20004;-85
2021/12/13 07:03:54;;;;;;;;;;;;;;;-2.30;100.00;100570.31;5006529;28;20031;-84
2021/12/13 07:06:20;;;;;;;;;;;;;;;-2.25;100.00;100572.78;5006866;28;19997;-84
2021/12/13 07:08:47;;;;;;;;;;;;;;;-2.20;100.00;100576.94;5008651;28;19921;-84
2021/12/13 07:11:17;;;;;;;;;;;;;;;-2.17;100.00;100576.00;5003906;28;19962;-84
2021/12/13 07:13:48;;;;;;;;;;;;;;;-2.21;100.00;100572.66;5000278;28;19917;-84
2021/12/13 07:16:26;;;;;;;;;;;;;;;-2.20;100.00;100571.78;5005616;28;19921;-84
2021/12/13 07:18:53;;;;;;;;;;;;;;;-2.15;100.00;100579.41;5006474;28;19922;-84
2021/12/13 07:21:23;;;;;;;;;;;;;;;-2.12;100.00;100580.16;5005843;28;19963;-84
2021/12/13 07:24:07;;;;;;;;;;;;;;;-2.04;100.00;100584.31;5006590;28;19918;-83
2021/12/13 07:26:36;;;;;;;;;;;;;;;-1.96;100.00;100584.97;5005735;28;19932;-84
2021/12/13 07:29:08;;;;;;;;;;;;;;;-1.92;100.00;100582.25;5004726;28;20266;-84
2021/12/13 07:31:33;;;;;;;;;;;;;;;-1.87;100.00;100595.91;5006768;28;19975;-84
2021/12/13 07:34:25;;;;;;;;;;;;;;;-1.92;100.00;100600.38;5005703;28;19917;-84
2021/12/13 07:36:55;;;;;;;;;;;;;;;-2.06;100.00;100603.28;5001695;28;19925;-84
2021/12/13 07:39:23;;;;;;;;;;;;;;;-2.15;100.00;100600.94;5005800;28;19925;-84
2021/12/13 07:41:52;;;;;;;;;;;;;;;-2.11;100.00;100597.38;5006372;28;20453;-84
2021/12/13 07:44:43;;;;;;;;;;;;;;;-1.98;100.00;100607.44;5005564;28;20370;-85
2021/12/13 07:47:20;;;;;;;;;;;;;;;-1.92;100.00;100605.53;4990719;28;20008;-85
2021/12/13 07:49:56;;;;;;;;;;;;;;;-1.94;100.00;100606.47;5002270;28;19918;-84
2021/12/13 07:52:27;;;;;;;;;;;;;;;-1.96;100.00;100603.06;5011387;28;19906;-83
2021/12/13 07:54:54;;;;;;;;;;;;;;;-1.80;100.00;100606.97;5025811;28;19925;-84
2021/12/13 07:57:30;;;;;;;;;;;;;;;-1.62;100.00;100610.81;5008999;28;20259;-83
2021/12/13 07:59:56;;;;;;;;;;;;;;;-1.49;100.00;100618.22;4998248;28;20354;-84
2021/12/13 08:02:33;;;;;;;;;;;;;;;-1.43;100.00;100623.22;5007587;28;19969;-84
2021/12/13 08:04:59;;;;;;;;;;;;;;;-1.41;100.00;100626.59;5009414;28;19917;-85
2021/12/13 08:07:29;;;;;;;;;;;;;;;-1.34;100.00;100633.31;5006221;28;20404;-87
2021/12/13 08:10:09;;;;;;;;;;;;;;;-1.27;100.00;100629.66;5003561;28;20081;-88
2021/12/13 08:12:54;;;;;;;;;;;;;;;-1.16;100.00;100628.50;5009059;28;20000;-90
2021/12/13 08:15:25;;;;;;;;;;;;;;;-1.03;100.00;100637.63;4994209;28;19922;-88
2021/12/13 08:17:55;;;;;;;;;;;;;;;-0.93;100.00;100633.88;5003251;28;19956;-88
2021/12/13 08:20:26;;;;;;;;;;;;;;;-0.88;100.00;100632.00;4997615;28;19918;-86
2021/12/13 08:22:54;;;;;;;;;;;;;;;-0.84;100.00;100638.81;5019564;28;19917;-87
2021/12/13 08:25:27;;;;;;;;;;;;;;;-0.77;100.00;100635.16;5025949;28;19905;-87
2021/12/13 08:28:01;;;;;;;;;;;;;;;-0.68;100.00;100640.03;5025143;28;19925;-87
2021/12/13 08:30:31;;;;;;;;;;;;;;;-0.62;100.00;100637.28;5019601;28;19912;-88
2021/12/13 08:32:59;;;;;;;;;;;;;;;-0.62;100.00;100631.25;5022627;28;19956;-87
2021/12/13 08:35:25;;;;;;;;;;;;;;;-0.56;100.00;100633.66;5024488;28;19910;-88
2021/12/13 08:37:58;;;;;;;;;;;;;;;-0.49;100.00;100629.97;5016506;28;19925;-86
2021/12/13 08:40:27;;;;;;;;;;;;;;;-0.42;100.00;100632.34;5018268;28;19921;-86
2021/12/13 08:42:55;;;;;;;;;;;;;;;-0.36;100.00;100626.09;5037771;28;19917;-92
2021/12/13 08:45:28;;;;;;;;;;;;;;;-0.27;100.00;100624.94;5020821;28;19921;-92
2021/12/13 08:48:12;;;;;;;;;;;;;;;-0.21;100.00;100640.31;5016892;28;19941;-92
2021/12/13 08:50:46;;;;;;;;;;;;;;;-0.09;100.00;100635.59;5021127;28;19978;-86
2021/12/13 08:53:20;;;;;;;;;;;;;;;0.02;100.00;100631.78;4993708;28;19906;-87
2021/12/13 08:55:57;;;;;;;;;;;;;;;0.12;100.00;100633.22;5014987;28;19917;-85
2021/12/13 08:58:23;;;;;;;;;;;;;;;0.22;100.00;100642.38;4999735;28;20461;-88
2021/12/13 09:00:51;;;;;;;;;;;;;;;0.29;100.00;100644.72;5000333;28;19941;-87
2021/12/13 09:03:25;;;;;;;;;;;;;;;0.37;100.00;100642.69;5004044;28;20319;-87
2021/12/13 09:05:51;;;;;;;;;;;;;;;0.48;100.00;100633.69;5016509;28;19925;-88
2021/12/13 09:08:23;;;;;;;;;;;;;;;0.57;100.00;100635.97;5016377;28;19972;-85
2021/12/13 09:11:08;;;;;;;;;;;;;;;0.62;100.00;100639.25;5011727;28;19925;-86
2021/12/13 09:13:41;;;;;;;;;;;;;;;0.71;100.00;100633.72;5015960;28;19921;-89
2021/12/13 09:16:10;;;;;;;;;;;;;;;0.79;100.00;100637.75;5034422;28;19909;-90
2021/12/13 09:18:38;;;;;;;;;;;;;;;0.85;100.00;100635.84;5036977;28;19973;-92
2021/12/13 09:21:07;;;;;;;;;;;;;;;0.91;100.00;100631.25;4994875;28;19926;-91
2021/12/13 09:23:43;;;;;;;;;;;;;;;0.94;100.00;100636.38;4988856;28;19926;-88
2021/12/13 09:26:35;;;;;;;;;;;;;;;1.02;100.00;100644.72;4999330;28;19967;-83
2021/12/13 09:29:03;;;;;;;;;;;;;;;1.01;100.00;100644.75;5013888;28;19917;-83
2021/12/13 09:31:35;;;;;;;;;;;;;;;1.09;100.00;100638.38;5016422;28;19973;-80
2021/12/13 09:34:06;;;;;;;;;;;;;;;1.17;100.00;100640.72;5016670;28;19924;-82
2021/12/13 09:36:35;;;;;;;;;;;;;;;1.27;100.00;100639.44;5016148;28;19917;-81
2021/12/13 09:39:06;;;;;;;;;;;;;;;1.27;100.00;100643.81;5013176;28;19918;-86
2021/12/13 09:41:38;;;;;;;;;;;;;;;1.29;100.00;100644.59;5004244;28;19921;-88
2021/12/13 09:44:10;;;;;;;;;;;;;;;1.21;100.00;100635.34;5008833;28;19922;-87
2021/12/13 09:46:48;;;;;;;;;;;;;;;1.28;100.00;100637.69;4994789;28;19917;-85
2021/12/13 09:49:33;;;;;;;;;;;;;;;1.34;100.00;100640.06;5001501;28;19921;-81
2021/12/13 09:52:02;;;;;;;;;;;;;;;1.43;100.00;100634.50;5010999;28;19924;-81
2021/12/13 09:54:32;;;;;;;;;;;;;;;1.50;100.00;100630.75;5014491;28;19918;-81
2021/12/13 09:57:00;;;;;;;;;;;;;;;1.58;100.00;100623.53;5012626;28;19920;-83
2021/12/13 09:59:28;;;;;;;;;;;;;;;1.68;100.00;100614.44;5012920;28;20353;-81
2021/12/13 10:01:56;;;;;;;;;;;;;;;1.75;100.00;100620.25;5013558;28;19932;-84
2021/12/13 10:04:38;;;;;;;;;;;;;;;1.85;100.00;100621.56;5006879;28;20008;-83
2021/12/13 10:07:06;;;;;;;;;;;;;;;1.95;100.00;100618.53;5013773;28;19933;-82
2021/12/13 10:09:34;;;;;;;;;;;;;;;2.05;100.00;100612.03;5006778;28;19921;-83
2021/12/13 10:12:04;;;;;;;;;;;;;;;2.15;100.00;100615.09;5003364;28;19953;-82
2021/12/13 10:14:31;;;;;;;;;;;;;;;2.25;100.00;100602.53;5000650;28;19922;-82
2021/12/13 10:16:57;;;;;;;;;;;;;;;2.35;100.00;100596.03;5012588;28;19918;-87
2021/12/13 10:19:36;;;;;;;;;;;;;;;;;;;;;
2021/12/13 10:22:34;;;;;;;;;;;;;;;2.57;100.00;100596.81;5017830;22;20318;-90
2021/12/13 10:25:07;;;;;;;;;;;;;;;2.65;100.00;100589.47;5028299;28;19918;-90
2021/12/13 10:27:33;;;;;;;;;;;;;;;2.78;99.90;100598.44;5005587;28;19940;-89
2021/12/13 10:30:00;;;;;;;;;;;;;;;2.88;99.65;100581.50;5010589;28;19917;-83
2021/12/13 10:32:28;;;;;;;;;;;;;;;2.98;99.16;100581.06;5016354;28;20231;-87
2021/12/13 10:35:00;;;;;;;;;;;;;;;3.07;99.03;100581.47;4998235;28;19960;-88
2021/12/13 10:37:29;;;;;;;;;;;;;;;3.17;98.77;100579.31;4998501;28;19917;-83
2021/12/13 10:40:01;;;;;;;;;;;;;;;3.26;98.55;100571.03;5003562;28;19925;-89
2021/12/13 10:42:30;;;;;;;;;;;;;;;3.35;98.08;100575.84;5014727;28;20049;-86
2021/12/13 10:44:56;;;;;;;;;;;;;;;3.43;98.03;100567.63;5019464;28;19975;-88
2021/12/13 10:47:39;;;;;;;;;;;;;;;3.49;97.79;100573.41;5006644;28;19917;-90
2021/12/13 10:50:06;;;;;;;;;;;;;;;3.55;97.30;100562.69;5014491;28;19914;-86
2021/12/13 10:52:37;;;;;;;;;;;;;;;3.65;97.39;100565.72;5033159;28;19964;-89
2021/12/13 10:55:16;;;;;;;;;;;;;;;3.71;96.86;100568.84;5006072;28;19920;-85
2021/12/13 10:57:44;;;;;;;;;;;;;;;3.78;96.35;100563.31;5013905;28;20309;-86
2021/12/13 11:00:13;;;;;;;;;;;;;;;3.84;96.99;100556.03;5002713;28;19921;-84
2021/12/13 11:02:39;;;;;;;;;;;;;;;3.91;96.65;100548.75;5011895;28;19917;-89
2021/12/13 11:05:07;;;;;;;;;;;;;;;3.94;96.69;100548.59;5004620;28;19917;-87
2021/12/13 11:07:33;;;;;;;;;;;;;;;3.98;96.89;100545.75;5014240;28;19925;-87
2021/12/13 11:09:59;;;;;;;;;;;;;;;4.03;96.68;100535.06;4987086;28;19917;-87
2021/12/13 11:12:30;;;;;;;;;;;;;;;4.07;97.04;100540.06;5003243;28;19964;-82
2021/12/13 11:14:56;;;;;;;;;;;;;;;4.12;96.63;100537.22;5003731;28;19948;-80
2021/12/13 11:17:24;;;;;;;;;;;;;;;4.17;96.92;100534.38;5004139;28;19924;-80
2021/12/13 11:19:54;;;;;;;;;;;;;;;4.22;96.89;100537.59;5005210;28;19921;-78
2021/12/13 11:22:22;;;;;;;;;;;;;;;4.28;96.88;100532.06;5003851;28;20369;-83
2021/12/13 11:24:50;;;;;;;;;;;;;;;4.34;96.88;100531.75;5003166;28;19918;-84
2021/12/13 11:27:20;;;;;;;;;;;;;;;4.44;96.02;100523.34;5006324;28;19921;-83
2021/12/13 11:29:47;;;;;;;;;;;;;;;4.56;95.99;100529.69;5005413;28;19920;-82
2021/12/13 11:32:47;;;;;;;;;;;;;;;4.68;95.70;100520.34;5004695;28;20012;-82
2021/12/13 11:35:32;;;;;;;;;;;;;;;4.83;94.94;100520.34;5005705;28;19940;-83
2021/12/13 11:38:26;;;;;;;;;;;;;;;5.03;94.77;100521.03;5002031;28;19945;-82
2021/12/13 11:41:07;;;;;;;;;;;;;;;5.24;94.29;100527.72;5017097;28;19964;-83
2021/12/13 11:43:51;;;;;;;;;;;;;;;5.41;93.31;100516.31;5005257;28;19921;-85
2021/12/13 11:46:33;;;;;;;;;;;;;;;5.59;92.83;100521.34;5004775;28;19949;-85
2021/12/13 11:49:11;;;;;;;;;;;;;;;5.77;91.55;100508.97;5005083;28;19924;-82
2021/12/13 11:52:06;;;;;;;;;;;;;;;5.92;90.70;100502.84;5033863;28;19928;-84
2021/12/13 11:54:38;;;;;;;;;;;;;;;6.10;90.39;100506.16;5004058;28;19994;-83
2021/12/13 11:57:16;;;;;;;;;;;;;;;6.25;89.58;100493.91;5008482;28;19926;-84
2021/12/13 12:00:03;;;;;;;;;;;;;;;6.37;88.39;100503.66;5000703;28;20357;-82
2021/12/13 12:02:48;;;;;;;;;;;;;;;6.50;87.83;100501.97;5007154;28;19925;-81
2021/12/13 12:05:32;;;;;;;;;;;;;;;6.63;86.87;100499.44;5013931;28;19924;-86
2021/12/13 12:08:19;;;;;;;;;;;;;;;6.74;85.66;100495.22;5007904;28;19917;-86
2021/12/13 12:10:53;;;;;;;;;;;;;;;6.86;85.47;100490.97;5024021;28;19918;-85
2021/12/13 12:13:28;;;;;;;;;;;;;;;6.97;84.60;100489.38;5012695;28;20104;-87
2021/12/13 12:15:58;;;;;;;;;;;;;;;7.09;84.00;100492.13;5021070;28;20017;-85
2021/12/13 12:18:24;;;;;;;;;;;;;;;7.21;83.63;100480.84;5049878;28;19922;-85
2021/12/13 12:21:10;;;;;;;;;;;;;;;7.32;83.24;100483.63;5009245;28;19928;-83
2021/12/13 12:23:36;;;;;;;;;;;;;;;7.48;82.64;100478.25;5033596;28;19915;-90
2021/12/13 12:26:02;;;;;;;;;;;;;;;7.57;81.59;100478.47;4994134;28;20010;-89
2021/12/13 12:28:32;;;;;;;;;;;;;;;7.65;80.36;100477.97;5021290;28;19929;-84
2021/12/13 12:30:58;;;;;;;;;;;;;;;7.75;79.96;100471.16;5014215;28;19920;-88
2021/12/13 12:33:34;;;;;;;;;;;;;;;7.87;79.05;100464.22;5010622;28;20073;-81
2021/12/13 12:36:02;;;;;;;;;;;;;;;8.00;79.15;100465.09;5004493;28;19917;-82
2021/12/13 12:38:33;;;;;;;;;;;;;;;8.08;78.89;100462.75;5009376;28;19918;-87
2021/12/13 12:41:11;;;;;;;;;;;;;;;8.13;78.33;100461.50;5009371;28;19913;-89
2021/12/13 12:43:40;;;;;;;;;;;;;;;8.17;78.31;100454.25;5010408;28;19918;-88
2021/12/13 12:46:08;;;;;;;;;;;;;;;8.22;77.14;100450.38;5007904;28;19967;-87
2021/12/13 12:48:36;;;;;;;;;;;;;;;8.34;77.83;100450.50;5007475;28;19925;-87
2021/12/13 12:51:05;;;;;;;;;;;;;;;8.44;77.64;100449.72;5008269;28;19917;-89
2021/12/13 12:53:33;;;;;;;;;;;;;;;8.55;77.58;100447.19;5006184;28;20397;-83
2021/12/13 12:56:05;;;;;;;;;;;;;;;8.68;76.75;100441.06;5004077;28;20258;-85
2021/12/13 12:58:35;;;;;;;;;;;;;;;8.75;75.42;100435.25;5005665;28;20051;-84
2021/12/13 13:01:04;;;;;;;;;;;;;;;8.82;74.24;100430.41;5005234;28;19918;-86